Time;durP1;ratioP1;P1;durP2;ratioP2;P2;SDS_P1;SDS_P2;PMS_P1;PMS_P2;Temp;Humidity;BMP_temperature;BMP_pressure;BME280_temperature;BME280_humidity;BME280_pressure;Samples;Min_cycle;Max_cycle;Signal;HPM_P1;HPM_P2
2023/05/03 00:02:15;;;;;;;6.78;2.20;;;;;;;-143.48;72.19;118439.88;5056185;28;20036;-67
2023/05/03 00:04:40;;;;;;;5.78;1.90;;;;;;;-143.48;72.53;118439.88;5056112;28;20432;-68
2023/05/03 00:07:06;;;;;;;6.57;2.33;;;;;;;-143.48;72.78;118439.88;5056015;28;20086;-67
2023/05/03 00:09:34;;;;;;;6.78;2.10;;;;;;;-143.48;72.34;118439.88;5055864;28;20052;-67
2023/05/03 00:12:00;;;;;;;6.47;2.13;;;;;;;-143.48;73.36;118439.88;5056224;28;20048;-69
2023/05/03 00:14:26;;;;;;;8.95;2.00;;;;;;;-143.48;73.93;118439.88;5056143;28;20057;-68
2023/05/03 00:16:51;;;;;;;5.82;2.20;;;;;;;-143.48;74.72;118439.88;5056141;28;20028;-68
2023/05/03 00:19:18;;;;;;;8.20;2.60;;;;;;;-143.48;73.51;118439.88;5055801;28;20024;-68
2023/05/03 00:21:43;;;;;;;8.55;2.33;;;;;;;-143.48;74.38;118439.88;5037641;28;20369;-67
2023/05/03 00:24:09;;;;;;;5.80;2.35;;;;;;;-143.48;74.45;118439.88;5055972;28;20031;-67
2023/05/03 00:26:34;;;;;;;7.00;2.10;;;;;;;-143.48;73.92;118439.88;5055486;28;20021;-67
2023/05/03 00:29:00;;;;;;;6.43;2.00;;;;;;;-143.48;74.38;118439.88;5055483;28;20057;-68
2023/05/03 00:31:25;;;;;;;6.57;2.20;;;;;;;-143.48;75.05;118439.88;5037803;28;20046;-68
2023/05/03 00:33:50;;;;;;;8.40;2.10;;;;;;;-143.48;75.19;118439.88;5037638;28;20037;-68
2023/05/03 00:36:16;;;;;;;6.93;2.20;;;;;;;-143.48;75.51;118439.88;5055700;28;20025;-69
2023/05/03 00:38:41;;;;;;;6.82;2.53;;;;;;;-143.48;75.02;118439.88;5055519;28;20108;-67
2023/05/03 00:41:08;;;;;;;4.80;1.80;;;;;;;-143.48;75.19;118439.88;5055626;28;20047;-68
2023/05/03 00:43:34;;;;;;;4.25;2.30;;;;;;;-143.48;76.27;118439.88;5055326;28;20457;-68
2023/05/03 00:46:02;;;;;;;11.00;2.58;;;;;;;-143.48;76.43;118439.88;5037344;28;20110;-68
2023/05/03 00:48:27;;;;;;;5.25;2.58;;;;;;;-143.48;76.09;118439.88;5055361;28;20025;-68
2023/05/03 00:50:54;;;;;;;8.90;2.63;;;;;;;-143.48;76.07;118439.88;5037352;28;20392;-68
2023/05/03 00:53:21;;;;;;;8.10;2.25;;;;;;;-143.48;75.96;118439.88;5055082;28;20116;-68
2023/05/03 00:55:47;;;;;;;8.82;2.90;;;;;;;-143.48;76.10;118439.88;5055079;28;20033;-68
2023/05/03 00:58:12;;;;;;;7.28;2.38;;;;;;;-143.48;76.67;118439.88;5055104;28;20032;-70
2023/05/03 01:00:38;;;;;;;9.55;2.78;;;;;;;-143.48;76.56;118439.88;5054952;28;20044;-69
2023/05/03 01:03:03;;;;;;;7.90;2.20;;;;;;;-143.48;76.61;118439.88;5054961;28;20028;-68
2023/05/03 01:05:40;;;;;;;9.27;2.30;;;;;;;-143.48;77.01;118439.88;5054819;28;20029;-68
2023/05/03 01:08:14;;;;;;;6.45;2.22;;;;;;;-143.48;77.10;118439.88;5055139;28;20028;-69
2023/05/03 01:11:20;;;;;;;6.05;2.42;;;;;;;-143.48;77.55;118439.88;5055099;28;20477;-68
2023/05/03 01:13:55;;;;;;;7.10;2.22;;;;;;;-143.48;77.51;118439.88;5014958;28;20037;-67
2023/05/03 01:16:30;;;;;;;5.95;2.47;;;;;;;-143.48;77.34;118439.88;5054617;28;20036;-69
2023/05/03 01:19:00;;;;;;;5.43;2.38;;;;;;;-143.48;77.98;118439.88;5054695;28;20089;-68
2023/05/03 01:21:27;;;;;;;5.80;2.40;;;;;;;-143.48;78.31;118439.88;5036618;28;20024;-68
2023/05/03 01:24:02;;;;;;;5.90;2.55;;;;;;;-143.48;78.77;118439.88;5054490;28;20029;-67
2023/05/03 01:26:28;;;;;;;7.50;2.30;;;;;;;-143.48;78.28;118439.88;5036572;28;20025;-67
2023/05/03 01:28:54;;;;;;;5.22;2.22;;;;;;;-143.48;78.35;118439.88;5054741;28;20032;-68
2023/05/03 01:31:42;;;;;;;6.30;2.40;;;;;;;-143.48;78.67;118439.88;5054075;28;20025;-68
2023/05/03 01:34:24;;;;;;;6.05;2.72;;;;;;;-143.48;78.80;118439.88;5035935;28;20025;-68
2023/05/03 01:36:52;;;;;;;12.65;2.63;;;;;;;-143.48;78.16;118439.88;5054399;28;20071;-68
2023/05/03 01:39:36;;;;;;;7.03;2.55;;;;;;;-143.48;79.02;118439.88;5036471;28;20434;-68
2023/05/03 01:42:03;;;;;;;10.55;2.60;;;;;;;-143.48;78.11;118439.88;5054317;28;20040;-68
2023/05/03 01:44:29;;;;;;;8.68;2.40;;;;;;;-143.48;78.75;118439.88;5053932;28;20353;-68
2023/05/03 01:46:56;;;;;;;4.95;2.45;;;;;;;-143.48;79.08;118439.88;5036346;28;20135;-67
2023/05/03 01:49:21;;;;;;;6.85;2.50;;;;;;;-143.48;79.11;118439.88;5054075;28;20035;-67
2023/05/03 01:51:46;;;;;;;5.55;2.38;;;;;;;-143.48;79.14;118439.88;5036390;28;20431;-68
2023/05/03 01:54:12;;;;;;;6.90;2.55;;;;;;;-143.48;78.26;118439.88;5054018;28;20024;-68
2023/05/03 01:56:37;;;;;;;5.25;2.47;;;;;;;-143.48;78.92;118439.88;5036305;28;20016;-68
2023/05/03 01:59:03;;;;;;;5.15;2.30;;;;;;;-143.48;78.73;118439.88;5054025;28;20052;-68
2023/05/03 02:01:28;;;;;;;5.10;2.83;;;;;;;-143.48;78.05;118439.88;5035718;28;20046;-68
2023/05/03 02:03:54;;;;;;;6.40;2.72;;;;;;;-143.48;78.78;118439.88;5036009;28;20029;-68
2023/05/03 02:06:19;;;;;;;6.47;2.50;;;;;;;-143.48;78.48;118439.88;5053812;28;20025;-68
2023/05/03 02:08:44;;;;;;;6.00;2.83;;;;;;;-143.48;78.61;118439.88;5036028;28;20028;-67
2023/05/03 02:11:10;;;;;;;5.13;2.30;;;;;;;-143.48;78.51;118439.88;5053655;28;20046;-68
2023/05/03 02:13:37;;;;;;;10.32;2.55;;;;;;;-143.48;78.93;118439.88;5054089;28;20090;-68
2023/05/03 02:16:02;;;;;;;8.77;3.00;;;;;;;-143.48;79.19;118439.88;5053689;28;20025;-69
2023/05/03 02:18:30;;;;;;;10.70;3.10;;;;;;;-143.48;79.57;118439.88;5053714;28;20381;-68
2023/05/03 02:20:55;;;;;;;6.90;2.80;;;;;;;-143.48;79.88;118439.88;5053751;28;20078;-68
2023/05/03 02:23:21;;;;;;;5.88;3.22;;;;;;;-143.48;79.11;118439.88;5053620;28;20113;-68
2023/05/03 02:25:46;;;;;;;12.20;3.03;;;;;;;-143.48;79.52;118439.88;5053689;28;20179;-68
2023/05/03 02:28:11;;;;;;;6.68;2.75;;;;;;;-143.48;80.50;118439.88;5053547;28;20021;-68
2023/05/03 02:30:37;;;;;;;5.93;2.67;;;;;;;-143.48;80.91;118439.88;5053441;28;20116;-68
2023/05/03 02:33:02;;;;;;;7.13;3.20;;;;;;;-143.48;81.66;118439.88;5053498;28;20055;-68
2023/05/03 02:35:27;;;;;;;6.85;2.70;;;;;;;-143.48;82.11;118439.88;5035569;28;20028;-68
2023/05/03 02:37:53;;;;;;;7.05;3.05;;;;;;;-143.48;81.99;118439.88;5053476;28;20025;-68
2023/05/03 02:40:18;;;;;;;9.80;2.72;;;;;;;-143.48;82.35;118439.88;5035548;28;20071;-68
2023/05/03 02:42:43;;;;;;;7.35;2.88;;;;;;;-143.48;82.13;118439.88;5053168;28;20029;-68
2023/05/03 02:45:09;;;;;;;5.68;3.15;;;;;;;-143.48;82.28;118439.88;5035251;28;20275;-67
2023/05/03 02:47:34;;;;;;;9.45;3.70;;;;;;;-143.48;82.67;118439.88;5057537;28;20025;-68
2023/05/03 02:50:00;;;;;;;7.65;3.30;;;;;;;-143.48;82.57;118439.88;5039750;28;20499;-67
2023/05/03 02:52:25;;;;;;;5.10;3.25;;;;;;;-143.48;83.48;118439.88;5057446;28;20345;-68
2023/05/03 02:54:50;;;;;;;9.05;3.80;;;;;;;-143.48;83.69;118439.88;5057769;28;20484;-68
2023/05/03 02:57:16;;;;;;;9.38;3.72;;;;;;;-143.48;83.38;118439.88;5039595;28;20055;-68
2023/05/03 02:59:41;;;;;;;8.30;3.33;;;;;;;-143.48;82.83;118439.88;5057325;28;20093;-68
2023/05/03 03:02:06;;;;;;;8.57;3.20;;;;;;;-143.48;82.62;118439.88;5056890;28;20055;-68
2023/05/03 03:04:32;;;;;;;6.32;3.20;;;;;;;-143.48;82.54;118439.88;5039460;28;20029;-69
2023/05/03 03:06:57;;;;;;;8.23;3.83;;;;;;;-143.48;82.31;118439.88;5039609;28;20452;-68
2023/05/03 03:09:22;;;;;;;6.80;3.50;;;;;;;-143.48;82.87;118439.88;5039479;28;20108;-68
2023/05/03 03:11:50;;;;;;;7.75;3.08;;;;;;;-143.48;83.00;118439.88;5057284;28;20029;-68
2023/05/03 03:14:15;;;;;;;8.48;3.60;;;;;;;-143.48;83.64;118439.88;5057256;28;20080;-69
2023/05/03 03:16:40;;;;;;;9.07;3.53;;;;;;;-143.48;83.07;118439.88;5057326;28;20056;-68
2023/05/03 03:19:06;;;;;;;6.93;3.70;;;;;;;-143.48;83.43;118439.88;5056911;28;20025;-68
2023/05/03 03:21:31;;;;;;;9.30;3.28;;;;;;;-143.48;82.78;118439.88;5039219;28;20543;-69
2023/05/03 03:23:56;;;;;;;6.00;3.70;;;;;;;-143.48;83.06;118439.88;5056707;28;20028;-69
2023/05/03 03:26:22;;;;;;;6.43;3.25;;;;;;;-143.48;83.04;118439.88;5056947;28;20021;-67
2023/05/03 03:28:47;;;;;;;6.72;3.30;;;;;;;-143.48;83.54;118439.88;5057192;28;20017;-69
2023/05/03 03:31:12;;;;;;;7.72;3.25;;;;;;;-143.48;83.58;118439.88;5057050;28;20484;-68
2023/05/03 03:33:38;;;;;;;7.95;3.30;;;;;;;-143.48;83.46;118439.88;5038899;28;20021;-68
2023/05/03 03:36:06;;;;;;;7.50;3.38;;;;;;;-143.48;83.29;118439.88;5038718;28;20082;-68
2023/05/03 03:38:32;;;;;;;7.30;3.70;;;;;;;-143.48;82.96;118439.88;5038770;28;20108;-67
2023/05/03 03:40:57;;;;;;;9.00;3.30;;;;;;;-143.48;82.57;118439.88;5056538;28;20066;-67
2023/05/03 03:43:22;;;;;;;6.15;3.13;;;;;;;-143.48;82.80;118439.88;5056795;28;20025;-68
2023/05/03 03:45:48;;;;;;;7.15;3.30;;;;;;;-143.48;83.39;118439.88;5056337;28;20461;-67
2023/05/03 03:48:13;;;;;;;8.40;3.80;;;;;;;-143.48;84.18;118439.88;5038486;28;20108;-69
2023/05/03 03:50:38;;;;;;;9.90;3.78;;;;;;;-143.48;84.58;118439.88;5056319;28;20078;-69
2023/05/03 03:53:05;;;;;;;7.28;3.30;;;;;;;-143.48;84.31;118439.88;5056298;28;20021;-69
2023/05/03 03:55:30;;;;;;;8.82;3.67;;;;;;;-143.48;83.99;118439.88;5056553;28;20037;-68
2023/05/03 03:57:56;;;;;;;5.35;3.30;;;;;;;-143.48;84.00;118439.88;5055624;28;20028;-68
2023/05/03 04:00:22;;;;;;;9.00;3.75;;;;;;;-143.48;83.61;118439.88;5056107;28;20031;-68
2023/05/03 04:02:47;;;;;;;10.98;3.55;;;;;;;-143.48;84.11;118439.88;5056159;28;20029;-69
2023/05/03 04:05:13;;;;;;;11.05;3.83;;;;;;;-143.48;84.83;118439.88;5038267;28;20404;-68
2023/05/03 04:07:38;;;;;;;5.35;3.35;;;;;;;-143.48;84.66;118439.88;5055995;28;20042;-68
2023/05/03 04:10:04;;;;;;;7.22;3.50;;;;;;;-143.48;84.77;118439.88;5038206;28;20029;-68
2023/05/03 04:12:29;;;;;;;9.95;3.58;;;;;;;-143.48;85.27;118439.88;5038210;28;20029;-68
2023/05/03 04:14:55;;;;;;;7.13;3.30;;;;;;;-143.48;84.96;118439.88;5056144;28;20357;-68
2023/05/03 04:17:21;;;;;;;7.35;3.33;;;;;;;-143.48;84.95;118439.88;5056136;28;20025;-68
2023/05/03 04:19:46;;;;;;;6.47;3.17;;;;;;;-143.48;84.05;118439.88;5055904;28;20091;-69
2023/05/03 04:22:11;;;;;;;7.50;4.13;;;;;;;-143.48;84.19;118439.88;5055639;28;20036;-69
2023/05/03 04:24:38;;;;;;;10.65;3.60;;;;;;;-143.48;84.39;118439.88;5055994;28;20473;-69
2023/05/03 04:27:03;;;;;;;6.80;3.25;;;;;;;-143.48;84.58;118439.88;5055704;28;20475;-69
2023/05/03 04:29:29;;;;;;;7.97;3.83;;;;;;;-143.48;84.55;118439.88;5055742;28;20036;-68
2023/05/03 04:31:55;;;;;;;6.63;3.58;;;;;;;-143.48;84.50;118439.88;5055573;28;20441;-69
2023/05/03 04:34:21;;;;;;;6.90;3.60;;;;;;;-143.48;84.58;118439.88;5055502;28;20100;-69
2023/05/03 04:36:46;;;;;;;7.85;3.60;;;;;;;-143.48;84.85;118439.88;5055942;28;20059;-69
2023/05/03 04:39:12;;;;;;;9.02;3.78;;;;;;;-143.48;84.45;118439.88;5055713;28;20437;-67
2023/05/03 04:41:39;;;;;;;9.38;4.20;;;;;;;-143.48;84.13;118439.88;5037487;28;20033;-68
2023/05/03 04:44:05;;;;;;;6.95;3.78;;;;;;;-143.48;84.66;118439.88;5055419;28;20096;-68
2023/05/03 04:46:30;;;;;;;8.48;3.90;;;;;;;-143.48;84.60;118439.88;5037173;28;20053;-69
2023/05/03 04:48:56;;;;;;;10.48;3.83;;;;;;;-143.48;84.07;118439.88;5037605;28;20025;-68
2023/05/03 04:51:22;;;;;;;6.30;3.97;;;;;;;-143.48;83.54;118439.88;5055311;28;20024;-68
2023/05/03 04:53:47;;;;;;;5.10;3.42;;;;;;;-143.48;82.71;118439.88;5055109;28;20028;-68
2023/05/03 04:56:13;;;;;;;9.73;3.55;;;;;;;-143.48;82.35;118439.88;5055142;28;20028;-68
2023/05/03 04:58:38;;;;;;;10.93;4.03;;;;;;;-143.48;81.72;118439.88;5037235;28;20364;-68
2023/05/03 05:01:03;;;;;;;7.30;3.65;;;;;;;-143.48;81.46;118439.88;5055130;28;20364;-68
2023/05/03 05:03:30;;;;;;;7.72;4.00;;;;;;;-143.48;81.99;118439.88;5037177;28;20036;-68
2023/05/03 05:05:55;;;;;;;7.38;3.85;;;;;;;-143.48;82.59;118439.88;5037257;28;20032;-68
2023/05/03 05:08:21;;;;;;;8.57;4.22;;;;;;;-143.48;82.04;118439.88;5036438;28;20456;-69
2023/05/03 05:10:46;;;;;;;9.75;4.63;;;;;;;-143.48;82.50;118439.88;5037115;28;20341;-69
2023/05/03 05:13:11;;;;;;;7.45;4.13;;;;;;;-143.48;82.15;118439.88;5054989;28;20021;-69
2023/05/03 05:15:37;;;;;;;7.25;3.97;;;;;;;-143.48;81.32;118439.88;5036814;28;20051;-68
2023/05/03 05:18:02;;;;;;;9.80;3.95;;;;;;;-143.48;80.63;118439.88;5054718;28;20029;-67
2023/05/03 05:20:28;;;;;;;9.02;4.47;;;;;;;-143.48;80.73;118439.88;5054906;28;20384;-68
2023/05/03 05:22:53;;;;;;;8.13;3.80;;;;;;;-143.48;80.77;118439.88;5054680;28;20520;-69
2023/05/03 05:25:18;;;;;;;7.28;4.18;;;;;;;-143.48;80.04;118439.88;5054889;28;20056;-68
2023/05/03 05:27:44;;;;;;;7.75;3.60;;;;;;;-143.48;80.53;118439.88;5054213;28;20456;-68
2023/05/03 05:30:09;;;;;;;11.18;4.03;;;;;;;-143.48;79.75;118439.88;5054061;28;20048;-68
2023/05/03 05:32:35;;;;;;;10.88;4.05;;;;;;;-143.48;80.20;118439.88;5053957;28;20035;-69
2023/05/03 05:35:00;;;;;;;7.65;3.72;;;;;;;-143.48;80.71;118439.88;5035986;28;20028;-69
2023/05/03 05:37:26;;;;;;;7.65;3.80;;;;;;;-143.48;80.61;118439.88;5036263;28;20079;-70
2023/05/03 05:39:52;;;;;;;8.13;4.00;;;;;;;-143.48;80.60;118439.88;5053644;28;20021;-68
2023/05/03 05:42:17;;;;;;;7.75;3.80;;;;;;;-143.48;80.36;118439.88;5036263;28;20380;-68
2023/05/03 05:44:42;;;;;;;9.63;4.47;;;;;;;-143.48;79.82;118439.88;5035794;28;20436;-69
2023/05/03 05:47:08;;;;;;;10.82;4.07;;;;;;;-143.48;79.58;118439.88;5035550;28;20024;-69
2023/05/03 05:49:34;;;;;;;11.02;3.53;;;;;;;-143.48;79.63;118439.88;5036449;28;20058;-68
2023/05/03 05:52:00;;;;;;;5.88;3.35;;;;;;;-143.48;78.38;118439.88;5054045;28;20104;-69
2023/05/03 05:54:25;;;;;;;9.07;3.83;;;;;;;-143.48;77.31;118439.88;5053052;28;20024;-67
2023/05/03 05:56:51;;;;;;;6.30;3.55;;;;;;;-143.48;75.14;118439.88;5054392;28;20108;-67
2023/05/03 05:59:16;;;;;;;9.05;3.50;;;;;;;-143.48;57.20;118439.88;5053594;28;20020;-67
2023/05/03 06:01:44;;;;;;;7.32;3.28;;;;;;;-143.48;50.39;118439.88;5034694;28;20049;-67
2023/05/03 06:04:12;;;;;;;12.27;3.70;;;;;;;-143.48;48.00;118439.88;5034710;28;20052;-68
2023/05/03 06:06:38;;;;;;;10.93;3.55;;;;;;;-143.48;48.12;118439.88;5052497;28;20047;-67
2023/05/03 06:09:03;;;;;;;8.13;3.17;;;;;;;-143.48;47.35;118439.88;5034560;28;20017;-67
2023/05/03 06:11:29;;;;;;;7.30;3.20;;;;;;;-143.48;46.76;118439.88;5034476;28;20056;-69
2023/05/03 06:13:56;;;;;;;8.02;3.25;;;;;;;-143.48;44.50;118439.88;5052296;28;20021;-69
2023/05/03 06:16:21;;;;;;;7.47;2.50;;;;;;;-143.48;42.51;118439.88;5053514;28;20025;-68
2023/05/03 06:18:47;;;;;;;7.45;2.30;;;;;;;-143.48;41.56;118439.88;5053758;28;20025;-67
2023/05/03 06:21:12;;;;;;;7.70;2.40;;;;;;;-143.48;40.90;118439.88;5053450;28;20016;-67
2023/05/03 06:23:39;;;;;;;7.28;2.90;;;;;;;-143.48;40.80;118439.88;5053783;28;20029;-69
2023/05/03 06:26:05;;;;;;;9.07;3.90;;;;;;;-143.48;40.51;118439.88;5052791;28;20021;-68
2023/05/03 06:28:30;;;;;;;8.27;3.90;;;;;;;-143.48;41.59;118439.88;5053544;28;20024;-69
2023/05/03 06:30:55;;;;;;;6.03;2.80;;;;;;;-143.48;39.22;118439.88;5035721;28;20104;-67
2023/05/03 06:33:21;;;;;;;6.55;2.10;;;;;;;-143.48;39.12;118439.88;5053400;28;20079;-69
2023/05/03 06:35:46;;;;;;;6.28;2.17;;;;;;;-143.48;39.24;118439.88;5053648;28;20472;-67
2023/05/03 06:38:12;;;;;;;6.38;1.88;;;;;;;-143.48;39.04;118439.88;5053800;28;20142;-67
2023/05/03 06:40:37;;;;;;;7.22;1.83;;;;;;;-143.48;40.25;118439.88;5035611;28;20119;-67
2023/05/03 06:43:02;;;;;;;8.73;2.10;;;;;;;-143.48;38.95;118439.88;5053459;28;20021;-75
2023/05/03 06:45:28;;;;;;;6.75;2.15;;;;;;;-143.48;38.83;118439.88;5035433;28;20045;-77
2023/05/03 06:47:53;;;;;;;7.05;1.88;;;;;;;-143.48;39.71;118439.88;5053509;28;20021;-75
2023/05/03 06:50:19;;;;;;;8.18;2.03;;;;;;;-143.48;41.15;118439.88;5053683;28;20025;-75
2023/05/03 06:52:45;;;;;;;7.30;2.05;;;;;;;-143.48;39.91;118439.88;5035983;28;20048;-75
2023/05/03 06:55:10;;;;;;;6.82;1.60;;;;;;;-143.48;38.79;118439.88;5035348;28;20036;-77
2023/05/03 06:57:36;;;;;;;4.22;2.00;;;;;;;-143.48;38.08;118439.88;5053460;28;20024;-75
2023/05/03 07:00:06;;;;;;;3.67;1.90;;;;;;;-143.48;38.67;118439.88;5035363;28;20112;-76
2023/05/03 07:02:31;;;;;;;7.85;2.10;;;;;;;-143.48;38.45;118439.88;5053388;28;20099;-74
2023/05/03 07:04:57;;;;;;;7.50;2.03;;;;;;;-143.48;38.08;118439.88;5053529;28;20033;-75
2023/05/03 07:07:22;;;;;;;7.82;1.70;;;;;;;-143.48;37.22;118439.88;5035420;28;20053;-76
2023/05/03 07:09:48;;;;;;;4.13;1.77;;;;;;;-143.48;38.57;118439.88;5035412;28;20021;-76
2023/05/03 07:12:13;;;;;;;6.45;2.35;;;;;;;-143.48;39.04;118439.88;5053485;28;20074;-75
2023/05/03 07:14:39;;;;;;;6.97;1.80;;;;;;;-143.48;36.32;118439.88;5035484;28;20021;-76
2023/05/03 07:17:04;;;;;;;6.65;1.80;;;;;;;-143.48;37.86;118439.88;5053118;28;20025;-75
2023/05/03 07:19:30;;;;;;;4.53;1.60;;;;;;;-143.48;37.75;118439.88;5035656;28;20029;-76
2023/05/03 07:21:56;;;;;;;7.63;1.70;;;;;;;-143.48;38.76;118439.88;5053331;28;20025;-75
2023/05/03 07:24:23;;;;;;;5.15;1.70;;;;;;;-143.48;38.69;118439.88;5035273;28;20021;-75
2023/05/03 07:26:49;;;;;;;4.07;1.90;;;;;;;-143.48;37.46;118439.88;5053075;28;20025;-67
2023/05/03 07:29:14;;;;;;;7.13;1.77;;;;;;;-143.48;37.69;118439.88;5035242;28;20449;-67
2023/05/03 07:31:39;;;;;;;6.78;1.73;;;;;;;-143.48;36.13;118439.88;5053842;28;20053;-67
2023/05/03 07:34:05;;;;;;;6.05;1.75;;;;;;;-143.48;35.64;118439.88;5056788;28;20029;-66
2023/05/03 07:36:31;;;;;;;8.80;1.83;;;;;;;-143.48;36.70;118439.88;5038797;28;20036;-67
2023/05/03 07:38:56;;;;;;;4.13;1.70;;;;;;;-143.48;36.39;118439.88;5056658;28;20059;-67
2023/05/03 07:41:21;;;;;;;6.35;1.70;;;;;;;-143.48;38.38;118439.88;5038623;28;20040;-68
2023/05/03 07:43:46;;;;;;;6.00;1.40;;;;;;;-143.48;36.57;118439.88;5056737;28;20048;-68
2023/05/03 07:46:12;;;;;;;5.05;1.30;;;;;;;-143.48;38.51;118439.88;5038368;28;20049;-69
2023/05/03 07:48:37;;;;;;;7.53;1.70;;;;;;;-143.48;38.48;118439.88;5038619;28;20040;-67
2023/05/03 07:51:04;;;;;;;5.65;1.50;;;;;;;-143.48;38.43;118439.88;5056725;28;20508;-68
2023/05/03 07:53:29;;;;;;;6.78;2.15;;;;;;;-143.48;39.84;118439.88;5056466;28;20021;-68
2023/05/03 07:55:55;;;;;;;4.30;1.50;;;;;;;-143.48;40.16;118439.88;5056494;28;20055;-67
2023/05/03 07:58:21;;;;;;;4.38;1.52;;;;;;;-143.48;39.69;118439.88;5038366;28;20472;-68
2023/05/03 08:00:46;;;;;;;4.40;1.60;;;;;;;-143.48;40.14;118439.88;5038245;28;20025;-66
2023/05/03 08:03:11;;;;;;;8.10;1.60;;;;;;;-143.48;41.48;118439.88;5056065;28;20060;-67
2023/05/03 08:05:36;;;;;;;5.43;1.50;;;;;;;-143.48;39.75;118439.88;5038462;28;20373;-69
2023/05/03 08:08:02;;;;;;;6.13;1.60;;;;;;;-143.48;40.92;118439.88;5038113;28;20470;-68
2023/05/03 08:10:28;;;;;;;5.28;1.80;;;;;;;-143.48;40.56;118439.88;5056091;28;20080;-68
2023/05/03 08:12:54;;;;;;;2.92;1.40;;;;;;;-143.48;40.83;118439.88;5038376;28;20017;-68
2023/05/03 08:15:19;;;;;;;4.22;1.60;;;;;;;-143.48;40.95;118439.88;5038091;28;20472;-67
2023/05/03 08:17:45;;;;;;;7.82;1.70;;;;;;;-143.48;39.88;118439.88;5056151;28;20377;-68
2023/05/03 08:20:11;;;;;;;4.45;1.73;;;;;;;-143.48;39.99;118439.88;5055855;28;20025;-68
2023/05/03 08:22:40;;;;;;;6.00;1.98;;;;;;;-143.48;40.02;118439.88;5055452;28;20029;-67
2023/05/03 08:25:06;;;;;;;4.93;1.60;;;;;;;-143.48;38.69;118439.88;5055784;28;20021;-67
2023/05/03 08:27:32;;;;;;;4.15;1.80;;;;;;;-143.48;39.69;118439.88;5055599;28;20111;-69
2023/05/03 08:29:58;;;;;;;9.35;1.63;;;;;;;-143.48;39.25;118439.88;5037740;28;20056;-67
2023/05/03 08:32:24;;;;;;;4.65;1.80;;;;;;;-143.48;39.16;118439.88;5037929;28;20521;-68
2023/05/03 08:34:50;;;;;;;4.53;1.58;;;;;;;-143.48;37.91;118439.88;5055466;28;20025;-67
2023/05/03 08:37:15;;;;;;;7.22;1.70;;;;;;;-143.48;39.14;118439.88;5055552;28;20021;-70
2023/05/03 08:39:40;;;;;;;7.88;1.70;;;;;;;-143.48;39.47;118439.88;5037897;28;20388;-70
2023/05/03 08:42:07;;;;;;;6.35;1.60;;;;;;;-143.48;39.61;118439.88;5037728;28;20036;-70
2023/05/03 08:44:36;;;;;;;6.63;1.80;;;;;;;-143.48;37.99;118439.88;5055253;28;20025;-71
2023/05/03 08:47:03;;;;;;;4.63;1.50;;;;;;;-143.48;37.51;118439.88;5055570;28;20021;-69
2023/05/03 08:49:32;;;;;;;8.40;2.13;;;;;;;-143.48;38.73;118439.88;5056514;28;20027;-67
2023/05/03 08:52:00;;;;;;;5.95;1.88;;;;;;;-143.48;38.44;118439.88;5039118;28;20104;-66
2023/05/03 08:54:26;;;;;;;7.32;1.95;;;;;;;-143.48;38.86;118439.88;5038016;28;20052;-68
2023/05/03 08:56:51;;;;;;;5.93;1.92;;;;;;;-143.48;38.10;118439.88;5056502;28;20480;-68
2023/05/03 08:59:17;;;;;;;8.30;1.70;;;;;;;-143.48;39.50;118439.88;5037357;28;20056;-68
2023/05/03 09:01:42;;;;;;;4.70;1.70;;;;;;;-143.48;38.49;118439.88;5053656;28;20051;-70
2023/05/03 09:04:10;;;;;;;4.93;1.55;;;;;;;-143.48;39.25;118439.88;5053936;28;20393;-70
2023/05/03 09:06:36;;;;;;;6.05;1.65;;;;;;;-143.48;38.86;118439.88;5054580;28;20392;-68
2023/05/03 09:09:07;;;;;;;6.43;1.70;;;;;;;-143.48;37.69;118439.88;5053581;28;20048;-69
2023/05/03 09:11:33;;;;;;;7.97;1.95;;;;;;;-143.48;38.44;118439.88;5053655;28;20025;-69
2023/05/03 09:14:17;;;;;;;7.53;1.92;;;;;;;-143.48;37.87;118439.88;5053515;28;20056;-68
2023/05/03 09:16:45;;;;;;;8.70;1.85;;;;;;;-143.48;36.94;118439.88;5053387;28;20029;-68
2023/05/03 09:19:12;;;;;;;4.35;1.60;;;;;;;-143.48;37.50;118439.88;5053337;28;20107;-69
2023/05/03 09:21:39;;;;;;;7.70;1.92;;;;;;;-143.48;39.15;118439.88;5053491;28;20028;-75
2023/05/03 09:24:16;;;;;;;6.93;1.88;;;;;;;-143.48;37.57;118439.88;5054432;28;20021;-74
2023/05/03 09:26:41;;;;;;;5.70;1.75;;;;;;;-143.48;36.89;118439.88;5054729;28;20580;-74
2023/05/03 09:29:07;;;;;;;7.03;2.00;;;;;;;-143.48;39.61;118439.88;5036776;28;20041;-69
2023/05/03 09:31:34;;;;;;;5.30;1.88;;;;;;;-143.48;39.58;118439.88;5036507;28;20515;-69
2023/05/03 09:34:00;;;;;;;4.47;1.77;;;;;;;-143.48;39.65;118439.88;5054487;28;20384;-69
2023/05/03 09:36:26;;;;;;;9.52;1.80;;;;;;;-143.48;37.42;118439.88;5036551;28;20029;-69
2023/05/03 09:38:52;;;;;;;6.93;1.73;;;;;;;-143.48;37.42;118439.88;5054417;28;20057;-69
2023/05/03 09:41:28;;;;;;;8.15;1.73;;;;;;;-143.48;36.70;118439.88;5036334;28;20025;-69
2023/05/03 09:43:55;;;;;;;5.43;1.50;;;;;;;-143.48;38.10;118439.88;5054338;28;20029;-68
2023/05/03 09:46:23;;;;;;;4.55;1.73;;;;;;;-143.48;38.22;118439.88;5036079;28;20049;-69
2023/05/03 09:48:49;;;;;;;6.10;1.90;;;;;;;-143.48;38.10;118439.88;5036468;28;20025;-69
2023/05/03 09:51:15;;;;;;;6.07;1.70;;;;;;;-143.48;37.45;118439.88;5036309;28;20461;-68
2023/05/03 09:53:40;;;;;;;6.53;1.85;;;;;;;-143.48;37.47;118439.88;5054261;28;20025;-70
2023/05/03 09:56:08;;;;;;;5.25;1.77;;;;;;;-143.48;38.64;118439.88;5053819;28;20032;-70
2023/05/03 09:58:35;;;;;;;4.57;1.85;;;;;;;-143.48;37.22;118439.88;5036151;28;20040;-69
2023/05/03 10:01:00;;;;;;;4.38;1.80;;;;;;;-143.48;37.70;118439.88;5054034;28;20028;-69
2023/05/03 10:03:49;;;;;;;4.75;1.85;;;;;;;-143.48;36.88;118439.88;5054024;28;20112;-69
2023/05/03 10:06:34;;;;;;;5.07;1.80;;;;;;;-143.48;37.81;118439.88;5054048;28;20028;-69
2023/05/03 10:09:13;;;;;;;5.22;2.13;;;;;;;-143.48;37.06;118439.88;5054178;28;20071;-69
2023/05/03 10:11:39;;;;;;;6.40;1.90;;;;;;;-143.48;36.79;118439.88;5036109;28;20495;-68
2023/05/03 10:14:06;;;;;;;5.10;1.60;;;;;;;-143.48;36.67;118439.88;5036051;28;20044;-69
2023/05/03 10:16:36;;;;;;;4.80;1.90;;;;;;;-143.48;36.15;118439.88;5036439;28;20071;-71
2023/05/03 10:19:14;;;;;;;3.92;1.73;;;;;;;-143.48;35.93;118439.88;5053878;28;20028;-69
2023/05/03 10:21:56;;;;;;;5.00;1.83;;;;;;;-143.48;36.59;118439.88;5053761;28;20021;-69
2023/05/03 10:24:22;;;;;;;6.40;2.15;;;;;;;-143.48;38.46;118439.88;5054053;28;20464;-69
2023/05/03 10:26:49;;;;;;;5.13;1.77;;;;;;;-143.48;36.32;118439.88;5036072;28;20075;-69
2023/05/03 10:29:33;;;;;;;7.25;2.00;;;;;;;-143.48;36.44;118439.88;5053413;28;20427;-69
2023/05/03 10:32:02;;;;;;;6.63;2.10;;;;;;;-143.48;36.49;118439.88;5053645;28;20029;-68
2023/05/03 10:34:38;;;;;;;5.95;1.88;;;;;;;-143.48;37.60;118439.88;5053669;28;20021;-68
2023/05/03 10:37:09;;;;;;;6.47;2.10;;;;;;;-143.48;37.46;118439.88;5053964;28;20021;-68
2023/05/03 10:39:34;;;;;;;7.63;2.28;;;;;;;-143.48;36.92;118439.88;5054122;28;20059;-69
2023/05/03 10:42:07;;;;;;;5.53;2.10;;;;;;;-143.48;37.28;118439.88;5054299;28;20079;-70
2023/05/03 10:44:40;;;;;;;;;;;;;;;-143.48;37.61;118439.88;5058989;28;20033;-70
2023/05/03 10:47:12;;;;;;;8.75;2.40;;;;;;;-143.48;36.69;118439.88;5060492;28;19946;-71
2023/05/03 10:49:38;;;;;;;3.78;1.80;;;;;;;-143.48;37.09;118439.88;5060141;28;20070;-69
2023/05/03 10:52:38;;;;;;;3.85;1.77;;;;;;;-143.48;35.77;118439.88;5060220;28;20108;-69
2023/05/03 10:55:15;;;;;;;3.30;1.92;;;;;;;-143.48;35.30;118439.88;5060886;28;20025;-69
2023/05/03 10:57:42;;;;;;;6.38;2.03;;;;;;;-143.48;35.79;118439.88;5057093;28;20099;-69
2023/05/03 11:00:18;;;;;;;9.90;2.00;;;;;;;-143.48;36.80;118439.88;5054358;28;20028;-69
2023/05/03 11:03:24;;;;;;;4.88;1.95;;;;;;;-143.48;35.83;118439.88;5059158;28;20029;-69
2023/05/03 11:05:51;;;;;;;7.40;2.25;;;;;;;-143.48;34.79;118439.88;5002877;28;20033;-70
2023/05/03 11:08:28;;;;;;;5.50;2.20;;;;;;;-143.48;36.67;118439.88;5059547;28;20029;-68
2023/05/03 11:11:01;;;;;;;5.40;2.20;;;;;;;-143.48;36.21;118439.88;5057748;28;20098;-69